sensor_id;sensor_type;location;lat;lon;timestamp;temperature;humidity
11836;DHT22;5977;51.972;7.640;2022-07-29T00:02:04;20.50;60.10
11836;DHT22;5977;51.972;7.640;2022-07-29T00:04:34;20.10;60.80
11836;DHT22;5977;51.972;7.640;2022-07-29T00:07:02;20.00;61.10
11836;DHT22;5977;51.972;7.640;2022-07-29T00:09:30;20.10;61.10
11836;DHT22;5977;51.972;7.640;2022-07-29T00:11:59;20.00;60.90
11836;DHT22;5977;51.972;7.640;2022-07-29T00:14:29;20.10;61.90
11836;DHT22;5977;51.972;7.640;2022-07-29T00:16:57;20.30;61.00
11836;DHT22;5977;51.972;7.640;2022-07-29T00:19:25;20.40;60.80
11836;DHT22;5977;51.972;7.640;2022-07-29T00:21:52;20.50;60.30
11836;DHT22;5977;51.972;7.640;2022-07-29T00:24:20;20.50;60.40
11836;DHT22;5977;51.972;7.640;2022-07-29T00:26:48;20.70;60.30
11836;DHT22;5977;51.972;7.640;2022-07-29T00:29:16;20.70;60.30
11836;DHT22;5977;51.972;7.640;2022-07-29T00:32:01;20.70;60.30
11836;DHT22;5977;51.972;7.640;2022-07-29T00:34:29;20.90;60.50
11836;DHT22;5977;51.972;7.640;2022-07-29T00:37:15;20.70;59.80
11836;DHT22;5977;51.972;7.640;2022-07-29T00:39:43;20.90;59.80
11836;DHT22;5977;51.972;7.640;2022-07-29T00:42:11;20.70;60.40
11836;DHT22;5977;51.972;7.640;2022-07-29T00:44:39;20.40;60.90
11836;DHT22;5977;51.972;7.640;2022-07-29T00:47:10;20.50;60.60
11836;DHT22;5977;51.972;7.640;2022-07-29T00:49:39;20.50;60.80
11836;DHT22;5977;51.972;7.640;2022-07-29T00:52:09;20.60;60.30
11836;DHT22;5977;51.972;7.640;2022-07-29T00:54:38;20.40;60.80
11836;DHT22;5977;51.972;7.640;2022-07-29T00:57:11;20.50;60.90
11836;DHT22;5977;51.972;7.640;2022-07-29T00:59:39;20.40;61.30
11836;DHT22;5977;51.972;7.640;2022-07-29T01:02:08;20.30;61.20
11836;DHT22;5977;51.972;7.640;2022-07-29T01:04:36;20.30;61.40
11836;DHT22;5977;51.972;7.640;2022-07-29T01:07:05;20.50;61.20
11836;DHT22;5977;51.972;7.640;2022-07-29T01:09:34;20.50;61.10
11836;DHT22;5977;51.972;7.640;2022-07-29T01:12:14;20.40;61.50
11836;DHT22;5977;51.972;7.640;2022-07-29T01:14:43;20.30;61.70
11836;DHT22;5977;51.972;7.640;2022-07-29T01:17:18;20.60;61.30
11836;DHT22;5977;51.972;7.640;2022-07-29T01:19:52;20.50;61.20
11836;DHT22;5977;51.972;7.640;2022-07-29T01:22:29;20.40;61.40
11836;DHT22;5977;51.972;7.640;2022-07-29T01:25:10;20.30;62.00
11836;DHT22;5977;51.972;7.640;2022-07-29T01:27:51;20.10;62.30
11836;DHT22;5977;51.972;7.640;2022-07-29T01:30:32;20.10;62.50
11836;DHT22;5977;51.972;7.640;2022-07-29T01:33:07;20.20;62.10
11836;DHT22;5977;51.972;7.640;2022-07-29T01:35:39;20.10;62.70
11836;DHT22;5977;51.972;7.640;2022-07-29T01:38:11;20.00;62.40
11836;DHT22;5977;51.972;7.640;2022-07-29T01:40:44;19.80;63.10
11836;DHT22;5977;51.972;7.640;2022-07-29T01:43:16;19.70;63.20
11836;DHT22;5977;51.972;7.640;2022-07-29T01:45:49;19.60;63.60
11836;DHT22;5977;51.972;7.640;2022-07-29T01:48:22;19.80;63.60
11836;DHT22;5977;51.972;7.640;2022-07-29T01:50:56;19.60;63.10
11836;DHT22;5977;51.972;7.640;2022-07-29T01:53:31;19.60;64.00
11836;DHT22;5977;51.972;7.640;2022-07-29T01:56:05;19.60;63.90
11836;DHT22;5977;51.972;7.640;2022-07-29T01:58:35;19.50;64.00
11836;DHT22;5977;51.972;7.640;2022-07-29T02:01:08;19.50;63.90
11836;DHT22;5977;51.972;7.640;2022-07-29T02:03:38;19.70;63.40
11836;DHT22;5977;51.972;7.640;2022-07-29T02:06:07;19.80;63.60
11836;DHT22;5977;51.972;7.640;2022-07-29T02:08:37;19.80;63.50
11836;DHT22;5977;51.972;7.640;2022-07-29T02:11:07;19.80;63.30
11836;DHT22;5977;51.972;7.640;2022-07-29T02:13:37;19.60;63.50
11836;DHT22;5977;51.972;7.640;2022-07-29T02:16:08;19.60;63.70
11836;DHT22;5977;51.972;7.640;2022-07-29T02:18:39;19.60;63.70
11836;DHT22;5977;51.972;7.640;2022-07-29T02:21:09;19.50;63.90
11836;DHT22;5977;51.972;7.640;2022-07-29T02:23:42;19.50;63.70
11836;DHT22;5977;51.972;7.640;2022-07-29T02:26:18;19.60;64.00
11836;DHT22;5977;51.972;7.640;2022-07-29T02:28:47;19.70;63.50
11836;DHT22;5977;51.972;7.640;2022-07-29T02:31:18;19.70;63.30
11836;DHT22;5977;51.972;7.640;2022-07-29T02:33:48;19.60;63.30
11836;DHT22;5977;51.972;7.640;2022-07-29T02:36:16;19.40;63.70
11836;DHT22;5977;51.972;7.640;2022-07-29T02:38:45;19.40;64.20
11836;DHT22;5977;51.972;7.640;2022-07-29T02:41:23;19.40;63.90
11836;DHT22;5977;51.972;7.640;2022-07-29T02:44:04;19.50;64.10
11836;DHT22;5977;51.972;7.640;2022-07-29T02:46:36;19.20;64.40
11836;DHT22;5977;51.972;7.640;2022-07-29T02:49:09;19.30;64.30
11836;DHT22;5977;51.972;7.640;2022-07-29T02:51:43;19.40;64.00
11836;DHT22;5977;51.972;7.640;2022-07-29T02:54:20;19.30;64.40
11836;DHT22;5977;51.972;7.640;2022-07-29T02:56:50;19.50;64.10
11836;DHT22;5977;51.972;7.640;2022-07-29T02:59:24;19.20;64.20
11836;DHT22;5977;51.972;7.640;2022-07-29T03:01:58;18.90;65.50
11836;DHT22;5977;51.972;7.640;2022-07-29T03:04:27;19.00;66.10
11836;DHT22;5977;51.972;7.640;2022-07-29T03:06:58;19.70;64.60
11836;DHT22;5977;51.972;7.640;2022-07-29T03:09:27;20.10;63.20
11836;DHT22;5977;51.972;7.640;2022-07-29T03:11:57;20.30;62.40
11836;DHT22;5977;51.972;7.640;2022-07-29T03:14:25;21.00;61.70
11836;DHT22;5977;51.972;7.640;2022-07-29T03:16:55;21.30;60.30
11836;DHT22;5977;51.972;7.640;2022-07-29T03:19:23;22.00;60.00
11836;DHT22;5977;51.972;7.640;2022-07-29T03:21:51;22.40;59.10
11836;DHT22;5977;51.972;7.640;2022-07-29T03:24:31;22.70;58.60
11836;DHT22;5977;51.972;7.640;2022-07-29T03:27:00;22.90;58.10
11836;DHT22;5977;51.972;7.640;2022-07-29T03:29:28;23.00;57.80
11836;DHT22;5977;51.972;7.640;2022-07-29T03:32:02;23.10;57.50
11836;DHT22;5977;51.972;7.640;2022-07-29T03:34:35;23.20;57.30
11836;DHT22;5977;51.972;7.640;2022-07-29T03:37:03;23.30;57.20
11836;DHT22;5977;51.972;7.640;2022-07-29T03:39:36;23.40;57.10
11836;DHT22;5977;51.972;7.640;2022-07-29T03:42:07;23.50;57.00
11836;DHT22;5977;51.972;7.640;2022-07-29T03:44:37;23.50;57.00
11836;DHT22;5977;51.972;7.640;2022-07-29T03:47:09;23.50;57.00
11836;DHT22;5977;51.972;7.640;2022-07-29T03:49:39;23.30;57.10
11836;DHT22;5977;51.972;7.640;2022-07-29T03:52:08;23.10;56.80
11836;DHT22;5977;51.972;7.640;2022-07-29T03:54:36;22.90;57.90
11836;DHT22;5977;51.972;7.640;2022-07-29T03:57:05;22.90;57.90
11836;DHT22;5977;51.972;7.640;2022-07-29T03:59:35;23.20;57.70
11836;DHT22;5977;51.972;7.640;2022-07-29T04:02:05;23.40;57.50
11836;DHT22;5977;51.972;7.640;2022-07-29T04:04:35;23.20;58.00
11836;DHT22;5977;51.972;7.640;2022-07-29T04:07:03;23.40;57.90
11836;DHT22;5977;51.972;7.640;2022-07-29T04:09:31;23.60;57.50
11836;DHT22;5977;51.972;7.640;2022-07-29T04:11:59;23.70;57.20
11836;DHT22;5977;51.972;7.640;2022-07-29T04:14:30;23.90;57.00
11836;DHT22;5977;51.972;7.640;2022-07-29T04:16:58;23.80;56.60
11836;DHT22;5977;51.972;7.640;2022-07-29T04:19:26;22.50;56.70
11836;DHT22;5977;51.972;7.640;2022-07-29T04:21:56;22.00;58.10
11836;DHT22;5977;51.972;7.640;2022-07-29T04:24:23;21.60;59.00
11836;DHT22;5977;51.972;7.640;2022-07-29T04:26:52;21.00;59.50
11836;DHT22;5977;51.972;7.640;2022-07-29T04:29:20;21.10;59.90
11836;DHT22;5977;51.972;7.640;2022-07-29T04:31:47;20.60;59.80
11836;DHT22;5977;51.972;7.640;2022-07-29T04:34:15;20.40;60.60
11836;DHT22;5977;51.972;7.640;2022-07-29T04:36:44;20.20;61.50
11836;DHT22;5977;51.972;7.640;2022-07-29T04:39:14;20.00;62.00
11836;DHT22;5977;51.972;7.640;2022-07-29T04:41:48;20.20;62.30
11836;DHT22;5977;51.972;7.640;2022-07-29T04:44:18;20.40;61.00
11836;DHT22;5977;51.972;7.640;2022-07-29T04:46:46;20.40;61.70
11836;DHT22;5977;51.972;7.640;2022-07-29T04:49:14;20.10;61.60
11836;DHT22;5977;51.972;7.640;2022-07-29T04:51:42;19.90;62.60
11836;DHT22;5977;51.972;7.640;2022-07-29T04:54:09;19.90;62.80
11836;DHT22;5977;51.972;7.640;2022-07-29T04:56:39;20.00;63.10
11836;DHT22;5977;51.972;7.640;2022-07-29T04:59:08;20.40;62.30
11836;DHT22;5977;51.972;7.640;2022-07-29T05:01:39;20.60;61.30
11836;DHT22;5977;51.972;7.640;2022-07-29T05:04:08;20.40;61.50
11836;DHT22;5977;51.972;7.640;2022-07-29T05:06:36;20.60;61.80
11836;DHT22;5977;51.972;7.640;2022-07-29T05:09:04;20.90;60.70
11836;DHT22;5977;51.972;7.640;2022-07-29T05:11:32;21.00;61.50
11836;DHT22;5977;51.972;7.640;2022-07-29T05:14:01;20.80;61.20
11836;DHT22;5977;51.972;7.640;2022-07-29T05:16:29;20.80;61.20
11836;DHT22;5977;51.972;7.640;2022-07-29T05:18:57;20.90;61.30
11836;DHT22;5977;51.972;7.640;2022-07-29T05:21:24;20.50;62.10
11836;DHT22;5977;51.972;7.640;2022-07-29T05:23:52;20.30;62.90
11836;DHT22;5977;51.972;7.640;2022-07-29T05:26:20;20.20;63.50
11836;DHT22;5977;51.972;7.640;2022-07-29T05:28:48;20.10;64.20
11836;DHT22;5977;51.972;7.640;2022-07-29T05:31:17;20.30;63.80
11836;DHT22;5977;51.972;7.640;2022-07-29T05:33:46;20.40;63.70
11836;DHT22;5977;51.972;7.640;2022-07-29T05:36:13;20.30;63.70
11836;DHT22;5977;51.972;7.640;2022-07-29T05:38:41;20.40;63.80
11836;DHT22;5977;51.972;7.640;2022-07-29T05:41:09;20.20;63.80
11836;DHT22;5977;51.972;7.640;2022-07-29T05:43:37;20.10;64.30
11836;DHT22;5977;51.972;7.640;2022-07-29T05:46:05;20.00;64.60
11836;DHT22;5977;51.972;7.640;2022-07-29T05:48:34;19.80;65.20
11836;DHT22;5977;51.972;7.640;2022-07-29T05:51:02;19.80;65.70
11836;DHT22;5977;51.972;7.640;2022-07-29T05:53:31;20.10;65.00
11836;DHT22;5977;51.972;7.640;2022-07-29T05:56:03;20.60;64.30
11836;DHT22;5977;51.972;7.640;2022-07-29T05:58:31;20.60;63.90
11836;DHT22;5977;51.972;7.640;2022-07-29T06:00:59;20.80;63.90
11836;DHT22;5977;51.972;7.640;2022-07-29T06:03:27;20.70;63.70
11836;DHT22;5977;51.972;7.640;2022-07-29T06:05:56;20.50;63.80
11836;DHT22;5977;51.972;7.640;2022-07-29T06:08:25;20.30;64.30
11836;DHT22;5977;51.972;7.640;2022-07-29T06:10:53;20.30;64.50
11836;DHT22;5977;51.972;7.640;2022-07-29T06:13:21;20.60;64.40
11836;DHT22;5977;51.972;7.640;2022-07-29T06:15:49;20.70;63.80
11836;DHT22;5977;51.972;7.640;2022-07-29T06:18:17;20.90;63.50
11836;DHT22;5977;51.972;7.640;2022-07-29T06:20:47;20.60;63.80
11836;DHT22;5977;51.972;7.640;2022-07-29T06:23:16;20.60;64.00
11836;DHT22;5977;51.972;7.640;2022-07-29T06:25:44;20.90;63.50
11836;DHT22;5977;51.972;7.640;2022-07-29T06:28:12;21.30;62.60
11836;DHT22;5977;51.972;7.640;2022-07-29T06:30:40;21.30;63.20
11836;DHT22;5977;51.972;7.640;2022-07-29T06:33:08;21.20;62.10
11836;DHT22;5977;51.972;7.640;2022-07-29T06:35:36;21.10;62.80
11836;DHT22;5977;51.972;7.640;2022-07-29T06:38:08;20.90;62.90
11836;DHT22;5977;51.972;7.640;2022-07-29T06:40:58;20.90;63.30
11836;DHT22;5977;51.972;7.640;2022-07-29T06:43:31;20.90;63.50
11836;DHT22;5977;51.972;7.640;2022-07-29T06:46:01;20.80;63.90
11836;DHT22;5977;51.972;7.640;2022-07-29T06:48:30;20.60;64.00
11836;DHT22;5977;51.972;7.640;2022-07-29T06:50:58;20.60;64.30
11836;DHT22;5977;51.972;7.640;2022-07-29T06:53:26;20.80;63.90
11836;DHT22;5977;51.972;7.640;2022-07-29T06:55:54;20.30;64.00
11836;DHT22;5977;51.972;7.640;2022-07-29T06:58:23;20.40;64.50
11836;DHT22;5977;51.972;7.640;2022-07-29T07:00:57;20.60;64.30
11836;DHT22;5977;51.972;7.640;2022-07-29T07:03:26;20.40;64.40
11836;DHT22;5977;51.972;7.640;2022-07-29T07:05:54;20.50;65.00
11836;DHT22;5977;51.972;7.640;2022-07-29T07:08:22;20.70;64.50
11836;DHT22;5977;51.972;7.640;2022-07-29T07:10:50;20.90;64.10
11836;DHT22;5977;51.972;7.640;2022-07-29T07:13:19;21.00;63.80
11836;DHT22;5977;51.972;7.640;2022-07-29T07:15:48;21.00;63.50
11836;DHT22;5977;51.972;7.640;2022-07-29T07:18:18;20.60;64.20
11836;DHT22;5977;51.972;7.640;2022-07-29T07:20:46;20.70;64.60
11836;DHT22;5977;51.972;7.640;2022-07-29T07:23:14;21.00;64.10
11836;DHT22;5977;51.972;7.640;2022-07-29T07:25:42;20.90;64.00
11836;DHT22;5977;51.972;7.640;2022-07-29T07:28:10;20.90;63.50
11836;DHT22;5977;51.972;7.640;2022-07-29T07:30:38;21.00;63.70
11836;DHT22;5977;51.972;7.640;2022-07-29T07:33:08;21.10;63.70
11836;DHT22;5977;51.972;7.640;2022-07-29T07:35:35;21.10;63.70
11836;DHT22;5977;51.972;7.640;2022-07-29T07:38:03;21.10;63.80
11836;DHT22;5977;51.972;7.640;2022-07-29T07:40:32;21.00;63.70
11836;DHT22;5977;51.972;7.640;2022-07-29T07:43:01;20.90;64.40
11836;DHT22;5977;51.972;7.640;2022-07-29T07:45:28;21.00;64.00
11836;DHT22;5977;51.972;7.640;2022-07-29T07:47:59;21.20;64.30
11836;DHT22;5977;51.972;7.640;2022-07-29T07:50:28;21.10;64.60
11836;DHT22;5977;51.972;7.640;2022-07-29T07:52:56;21.20;64.60
11836;DHT22;5977;51.972;7.640;2022-07-29T07:55:25;21.00;64.30
11836;DHT22;5977;51.972;7.640;2022-07-29T07:57:54;21.00;64.40
11836;DHT22;5977;51.972;7.640;2022-07-29T08:00:21;21.00;64.90
11836;DHT22;5977;51.972;7.640;2022-07-29T08:02:49;21.70;63.70
11836;DHT22;5977;51.972;7.640;2022-07-29T08:05:18;21.60;62.50
11836;DHT22;5977;51.972;7.640;2022-07-29T08:07:47;21.40;63.50
11836;DHT22;5977;51.972;7.640;2022-07-29T08:10:17;21.30;63.90
11836;DHT22;5977;51.972;7.640;2022-07-29T08:13:06;20.90;64.80
11836;DHT22;5977;51.972;7.640;2022-07-29T08:15:34;21.10;64.60
11836;DHT22;5977;51.972;7.640;2022-07-29T08:18:02;21.00;64.60
11836;DHT22;5977;51.972;7.640;2022-07-29T08:20:34;21.10;64.30
11836;DHT22;5977;51.972;7.640;2022-07-29T08:23:05;21.40;64.70
11836;DHT22;5977;51.972;7.640;2022-07-29T08:25:33;21.30;64.70
11836;DHT22;5977;51.972;7.640;2022-07-29T08:28:05;21.20;65.10
11836;DHT22;5977;51.972;7.640;2022-07-29T08:30:34;21.30;65.10
11836;DHT22;5977;51.972;7.640;2022-07-29T08:33:02;21.30;64.70
11836;DHT22;5977;51.972;7.640;2022-07-29T08:35:30;21.70;64.40
11836;DHT22;5977;51.972;7.640;2022-07-29T08:38:03;21.90;63.70
11836;DHT22;5977;51.972;7.640;2022-07-29T08:40:31;21.80;64.20
11836;DHT22;5977;51.972;7.640;2022-07-29T08:43:04;22.00;62.50
11836;DHT22;5977;51.972;7.640;2022-07-29T08:45:41;21.70;63.40
11836;DHT22;5977;51.972;7.640;2022-07-29T08:48:13;21.90;63.30
11836;DHT22;5977;51.972;7.640;2022-07-29T08:50:42;21.90;63.20
11836;DHT22;5977;51.972;7.640;2022-07-29T08:53:14;21.70;63.50
11836;DHT22;5977;51.972;7.640;2022-07-29T08:55:44;21.60;64.90
11836;DHT22;5977;51.972;7.640;2022-07-29T08:58:13;21.50;64.70
11836;DHT22;5977;51.972;7.640;2022-07-29T09:00:43;21.90;64.00
11836;DHT22;5977;51.972;7.640;2022-07-29T09:03:16;21.80;64.00
11836;DHT22;5977;51.972;7.640;2022-07-29T09:05:45;22.30;63.50
11836;DHT22;5977;51.972;7.640;2022-07-29T09:08:16;22.10;63.10
11836;DHT22;5977;51.972;7.640;2022-07-29T09:10:44;22.00;63.30
11836;DHT22;5977;51.972;7.640;2022-07-29T09:13:12;21.90;63.70
11836;DHT22;5977;51.972;7.640;2022-07-29T09:15:40;22.20;63.20
11836;DHT22;5977;51.972;7.640;2022-07-29T09:18:08;22.10;63.10
11836;DHT22;5977;51.972;7.640;2022-07-29T09:20:56;22.20;63.30
11836;DHT22;5977;51.972;7.640;2022-07-29T09:23:59;21.90;64.10
11836;DHT22;5977;51.972;7.640;2022-07-29T09:26:28;22.00;64.30
11836;DHT22;5977;51.972;7.640;2022-07-29T09:28:57;21.90;64.40
11836;DHT22;5977;51.972;7.640;2022-07-29T09:31:36;21.90;65.20
11836;DHT22;5977;51.972;7.640;2022-07-29T09:34:05;22.10;64.70
11836;DHT22;5977;51.972;7.640;2022-07-29T09:36:39;22.30;63.70
11836;DHT22;5977;51.972;7.640;2022-07-29T09:39:08;22.00;64.20
11836;DHT22;5977;51.972;7.640;2022-07-29T09:41:45;21.90;64.10
11836;DHT22;5977;51.972;7.640;2022-07-29T09:44:13;21.90;64.70
11836;DHT22;5977;51.972;7.640;2022-07-29T09:46:55;21.50;66.00
11836;DHT22;5977;51.972;7.640;2022-07-29T09:49:25;21.70;65.10
11836;DHT22;5977;51.972;7.640;2022-07-29T09:52:01;22.00;65.10
11836;DHT22;5977;51.972;7.640;2022-07-29T09:54:32;22.30;64.30
11836;DHT22;5977;51.972;7.640;2022-07-29T09:57:04;22.20;64.50
11836;DHT22;5977;51.972;7.640;2022-07-29T09:59:33;22.10;65.00
11836;DHT22;5977;51.972;7.640;2022-07-29T10:02:01;22.40;64.20
11836;DHT22;5977;51.972;7.640;2022-07-29T10:04:39;22.40;64.20
11836;DHT22;5977;51.972;7.640;2022-07-29T10:07:07;22.40;64.40
11836;DHT22;5977;51.972;7.640;2022-07-29T10:09:36;22.30;64.80
11836;DHT22;5977;51.972;7.640;2022-07-29T10:12:06;22.40;65.10
11836;DHT22;5977;51.972;7.640;2022-07-29T10:14:36;22.90;64.00
11836;DHT22;5977;51.972;7.640;2022-07-29T10:17:05;22.80;64.50
11836;DHT22;5977;51.972;7.640;2022-07-29T10:19:35;23.10;64.00
11836;DHT22;5977;51.972;7.640;2022-07-29T10:22:05;23.10;64.20
11836;DHT22;5977;51.972;7.640;2022-07-29T10:24:33;23.00;64.40
11836;DHT22;5977;51.972;7.640;2022-07-29T10:27:04;22.90;65.40
11836;DHT22;5977;51.972;7.640;2022-07-29T10:29:33;22.80;65.30
11836;DHT22;5977;51.972;7.640;2022-07-29T10:32:30;22.70;65.80
11836;DHT22;5977;51.972;7.640;2022-07-29T10:35:21;22.60;66.20
11836;DHT22;5977;51.972;7.640;2022-07-29T10:38:07;22.60;66.70
11836;DHT22;5977;51.972;7.640;2022-07-29T10:40:50;23.00;65.50
11836;DHT22;5977;51.972;7.640;2022-07-29T10:43:47;22.90;65.50
11836;DHT22;5977;51.972;7.640;2022-07-29T10:46:17;22.80;65.70
11836;DHT22;5977;51.972;7.640;2022-07-29T10:49:05;22.80;65.80
11836;DHT22;5977;51.972;7.640;2022-07-29T10:51:53;22.80;65.90
11836;DHT22;5977;51.972;7.640;2022-07-29T10:54:47;22.40;66.90
11836;DHT22;5977;51.972;7.640;2022-07-29T10:57:24;22.00;68.30
11836;DHT22;5977;51.972;7.640;2022-07-29T11:00:29;22.30;68.00
11836;DHT22;5977;51.972;7.640;2022-07-29T11:02:57;22.60;67.00
11836;DHT22;5977;51.972;7.640;2022-07-29T11:05:53;22.70;66.50
11836;DHT22;5977;51.972;7.640;2022-07-29T11:08:25;22.50;67.10
11836;DHT22;5977;51.972;7.640;2022-07-29T11:14:09;22.10;67.40
11836;DHT22;5977;51.972;7.640;2022-07-29T11:17:01;22.00;67.20
11836;DHT22;5977;51.972;7.640;2022-07-29T11:19:33;21.70;68.30
11836;DHT22;5977;51.972;7.640;2022-07-29T11:22:08;21.80;68.50
11836;DHT22;5977;51.972;7.640;2022-07-29T11:24:37;21.90;69.10
11836;DHT22;5977;51.972;7.640;2022-07-29T11:27:18;22.40;68.00
11836;DHT22;5977;51.972;7.640;2022-07-29T11:29:53;22.60;68.30
11836;DHT22;5977;51.972;7.640;2022-07-29T11:32:24;22.20;68.10
11836;DHT22;5977;51.972;7.640;2022-07-29T11:35:12;22.20;68.30
11836;DHT22;5977;51.972;7.640;2022-07-29T11:37:44;22.10;68.40
11836;DHT22;5977;51.972;7.640;2022-07-29T11:40:21;22.20;68.50
11836;DHT22;5977;51.972;7.640;2022-07-29T11:42:49;22.70;67.70
11836;DHT22;5977;51.972;7.640;2022-07-29T11:45:20;22.20;68.20
11836;DHT22;5977;51.972;7.640;2022-07-29T11:48:15;22.40;68.80
11836;DHT22;5977;51.972;7.640;2022-07-29T11:50:59;22.10;69.80
11836;DHT22;5977;51.972;7.640;2022-07-29T11:53:27;21.70;71.20
11836;DHT22;5977;51.972;7.640;2022-07-29T11:55:59;21.90;71.30
11836;DHT22;5977;51.972;7.640;2022-07-29T11:58:29;21.80;72.50
11836;DHT22;5977;51.972;7.640;2022-07-29T12:00:59;21.60;73.50
11836;DHT22;5977;51.972;7.640;2022-07-29T12:03:32;21.50;73.90
11836;DHT22;5977;51.972;7.640;2022-07-29T12:06:11;21.80;73.70
11836;DHT22;5977;51.972;7.640;2022-07-29T12:08:43;21.90;73.60
11836;DHT22;5977;51.972;7.640;2022-07-29T12:11:18;21.70;74.20
11836;DHT22;5977;51.972;7.640;2022-07-29T12:13:48;21.60;75.80
11836;DHT22;5977;51.972;7.640;2022-07-29T12:16:17;21.60;75.50
11836;DHT22;5977;51.972;7.640;2022-07-29T12:18:57;21.60;76.30
11836;DHT22;5977;51.972;7.640;2022-07-29T12:21:25;21.60;77.10
11836;DHT22;5977;51.972;7.640;2022-07-29T12:23:56;21.60;77.90
11836;DHT22;5977;51.972;7.640;2022-07-29T12:26:35;21.50;77.40
11836;DHT22;5977;51.972;7.640;2022-07-29T12:29:03;21.60;77.40
11836;DHT22;5977;51.972;7.640;2022-07-29T12:31:41;21.50;78.70
11836;DHT22;5977;51.972;7.640;2022-07-29T12:34:13;21.50;78.80
11836;DHT22;5977;51.972;7.640;2022-07-29T12:36:43;21.60;78.80
11836;DHT22;5977;51.972;7.640;2022-07-29T12:39:11;21.60;79.30
11836;DHT22;5977;51.972;7.640;2022-07-29T12:41:39;21.50;80.70
11836;DHT22;5977;51.972;7.640;2022-07-29T12:44:07;21.50;80.00
11836;DHT22;5977;51.972;7.640;2022-07-29T12:46:35;21.40;80.20
11836;DHT22;5977;51.972;7.640;2022-07-29T12:49:05;21.90;77.90
11836;DHT22;5977;51.972;7.640;2022-07-29T12:51:36;22.00;77.10
11836;DHT22;5977;51.972;7.640;2022-07-29T12:54:06;22.10;77.00
11836;DHT22;5977;51.972;7.640;2022-07-29T12:56:34;22.40;75.10
11836;DHT22;5977;51.972;7.640;2022-07-29T12:59:12;21.90;78.70
11836;DHT22;5977;51.972;7.640;2022-07-29T13:01:40;21.70;80.00
11836;DHT22;5977;51.972;7.640;2022-07-29T13:04:08;21.80;80.70
11836;DHT22;5977;51.972;7.640;2022-07-29T13:06:39;21.70;80.90
11836;DHT22;5977;51.972;7.640;2022-07-29T13:09:14;21.70;82.20
11836;DHT22;5977;51.972;7.640;2022-07-29T13:11:44;21.80;82.60
11836;DHT22;5977;51.972;7.640;2022-07-29T13:14:29;22.00;81.70
11836;DHT22;5977;51.972;7.640;2022-07-29T13:17:01;22.30;79.90
11836;DHT22;5977;51.972;7.640;2022-07-29T13:19:35;22.40;79.60
11836;DHT22;5977;51.972;7.640;2022-07-29T13:22:04;22.40;79.50
11836;DHT22;5977;51.972;7.640;2022-07-29T13:24:33;22.30;79.60
11836;DHT22;5977;51.972;7.640;2022-07-29T13:27:01;22.50;79.90
11836;DHT22;5977;51.972;7.640;2022-07-29T13:29:31;22.40;80.40
11836;DHT22;5977;51.972;7.640;2022-07-29T13:31:59;22.50;79.30
11836;DHT22;5977;51.972;7.640;2022-07-29T13:34:27;22.60;78.20
11836;DHT22;5977;51.972;7.640;2022-07-29T13:36:55;22.70;78.90
11836;DHT22;5977;51.972;7.640;2022-07-29T13:39:24;22.80;78.40
11836;DHT22;5977;51.972;7.640;2022-07-29T13:41:52;22.80;77.40
11836;DHT22;5977;51.972;7.640;2022-07-29T13:44:22;22.90;77.10
11836;DHT22;5977;51.972;7.640;2022-07-29T13:46:49;22.80;76.70
11836;DHT22;5977;51.972;7.640;2022-07-29T13:49:17;22.90;77.10
11836;DHT22;5977;51.972;7.640;2022-07-29T13:51:45;23.10;76.20
11836;DHT22;5977;51.972;7.640;2022-07-29T13:54:13;23.20;76.00
11836;DHT22;5977;51.972;7.640;2022-07-29T13:56:42;23.20;75.40
11836;DHT22;5977;51.972;7.640;2022-07-29T13:59:12;23.20;74.40
11836;DHT22;5977;51.972;7.640;2022-07-29T14:01:40;23.30;73.80
11836;DHT22;5977;51.972;7.640;2022-07-29T14:04:11;23.20;72.70
11836;DHT22;5977;51.972;7.640;2022-07-29T14:06:39;23.30;73.20
11836;DHT22;5977;51.972;7.640;2022-07-29T14:09:07;23.20;72.20
11836;DHT22;5977;51.972;7.640;2022-07-29T14:11:35;23.30;73.00
11836;DHT22;5977;51.972;7.640;2022-07-29T14:14:06;23.30;72.30
11836;DHT22;5977;51.972;7.640;2022-07-29T14:16:34;23.60;71.50
11836;DHT22;5977;51.972;7.640;2022-07-29T14:19:08;23.50;70.20
11836;DHT22;5977;51.972;7.640;2022-07-29T14:21:37;23.50;70.60
11836;DHT22;5977;51.972;7.640;2022-07-29T14:24:06;23.60;71.40
11836;DHT22;5977;51.972;7.640;2022-07-29T14:26:47;23.70;71.20
11836;DHT22;5977;51.972;7.640;2022-07-29T14:29:16;23.70;70.20
11836;DHT22;5977;51.972;7.640;2022-07-29T14:31:44;23.70;70.70
11836;DHT22;5977;51.972;7.640;2022-07-29T14:34:12;23.80;70.50
11836;DHT22;5977;51.972;7.640;2022-07-29T14:36:42;23.80;69.00
11836;DHT22;5977;51.972;7.640;2022-07-29T14:39:10;23.60;69.50
11836;DHT22;5977;51.972;7.640;2022-07-29T14:41:38;23.70;70.10
11836;DHT22;5977;51.972;7.640;2022-07-29T14:44:05;23.90;69.50
11836;DHT22;5977;51.972;7.640;2022-07-29T14:46:35;23.90;68.90
11836;DHT22;5977;51.972;7.640;2022-07-29T14:49:02;23.90;68.00
11836;DHT22;5977;51.972;7.640;2022-07-29T14:51:32;23.90;68.30
11836;DHT22;5977;51.972;7.640;2022-07-29T14:54:00;23.90;68.40
11836;DHT22;5977;51.972;7.640;2022-07-29T14:56:29;24.00;68.50
11836;DHT22;5977;51.972;7.640;2022-07-29T14:59:03;24.10;68.80
11836;DHT22;5977;51.972;7.640;2022-07-29T15:01:31;24.20;68.60
11836;DHT22;5977;51.972;7.640;2022-07-29T15:04:00;24.20;68.10
11836;DHT22;5977;51.972;7.640;2022-07-29T15:06:28;24.20;67.70
11836;DHT22;5977;51.972;7.640;2022-07-29T15:08:56;24.20;67.10
11836;DHT22;5977;51.972;7.640;2022-07-29T15:11:24;24.20;68.00
11836;DHT22;5977;51.972;7.640;2022-07-29T15:13:52;24.20;67.50
11836;DHT22;5977;51.972;7.640;2022-07-29T15:16:20;24.40;67.50
11836;DHT22;5977;51.972;7.640;2022-07-29T15:18:48;24.40;67.10
11836;DHT22;5977;51.972;7.640;2022-07-29T15:21:18;24.30;67.00
11836;DHT22;5977;51.972;7.640;2022-07-29T15:23:45;24.30;65.40
11836;DHT22;5977;51.972;7.640;2022-07-29T15:26:13;24.20;65.80
11836;DHT22;5977;51.972;7.640;2022-07-29T15:28:41;24.20;65.80
11836;DHT22;5977;51.972;7.640;2022-07-29T15:31:09;24.20;66.00
11836;DHT22;5977;51.972;7.640;2022-07-29T15:33:37;24.30;66.00
11836;DHT22;5977;51.972;7.640;2022-07-29T15:36:06;24.40;65.40
11836;DHT22;5977;51.972;7.640;2022-07-29T15:38:35;24.40;65.60
11836;DHT22;5977;51.972;7.640;2022-07-29T15:41:07;24.40;65.00
11836;DHT22;5977;51.972;7.640;2022-07-29T15:43:35;24.60;65.30
11836;DHT22;5977;51.972;7.640;2022-07-29T15:46:03;24.60;64.50
11836;DHT22;5977;51.972;7.640;2022-07-29T15:48:49;24.70;64.00
11836;DHT22;5977;51.972;7.640;2022-07-29T15:51:18;24.60;64.90
11836;DHT22;5977;51.972;7.640;2022-07-29T15:53:47;24.70;64.50
11836;DHT22;5977;51.972;7.640;2022-07-29T15:56:19;24.80;63.50
11836;DHT22;5977;51.972;7.640;2022-07-29T15:58:47;24.70;63.60
11836;DHT22;5977;51.972;7.640;2022-07-29T16:01:15;24.80;64.00
11836;DHT22;5977;51.972;7.640;2022-07-29T16:03:43;24.70;64.10
11836;DHT22;5977;51.972;7.640;2022-07-29T16:06:12;24.80;64.00
11836;DHT22;5977;51.972;7.640;2022-07-29T16:08:40;24.80;63.20
11836;DHT22;5977;51.972;7.640;2022-07-29T16:11:09;24.90;62.80
11836;DHT22;5977;51.972;7.640;2022-07-29T16:13:37;24.90;62.50